Time;durP1;ratioP1;P1;durP2;ratioP2;P2;SDS_P1;SDS_P2;PMS_P1;PMS_P2;Temp;Humidity;BMP_temperature;BMP_pressure;BME280_temperature;BME280_humidity;BME280_pressure;Samples;Min_cycle;Max_cycle;Signal;HPM_P1;HPM_P2
2021/09/14 00:01:16;;;;;;;13.48;8.63;;;15.80;99.90;;;;;;4994015;28;25118;-72
2021/09/14 00:03:41;;;;;;;17.63;9.52;;;15.90;99.90;;;;;;4993975;28;25076;-73
2021/09/14 00:06:07;;;;;;;16.85;9.70;;;16.00;99.90;;;;;;4983852;28;25065;-71
2021/09/14 00:08:33;;;;;;;15.20;9.68;;;16.10;99.90;;;;;;4990283;28;25084;-71
2021/09/14 00:10:59;;;;;;;12.82;9.00;;;16.10;99.90;;;;;;4992970;28;25063;-71
2021/09/14 00:13:25;;;;;;;14.07;9.80;;;16.00;99.90;;;;;;5000034;28;25120;-71
2021/09/14 00:15:50;;;;;;;16.55;9.88;;;16.00;99.90;;;;;;4983027;28;25132;-73
2021/09/14 00:18:16;;;;;;;15.95;9.43;;;15.80;99.90;;;;;;4996931;28;25064;-74
2021/09/14 00:20:41;;;;;;;16.02;10.50;;;15.80;99.90;;;;;;4987785;28;25099;-72
2021/09/14 00:23:07;;;;;;;18.42;9.73;;;15.80;99.90;;;;;;4997188;28;25129;-73
2021/09/14 00:25:35;;;;;;;13.45;10.45;;;15.80;99.90;;;;;;4983506;28;25060;-73
2021/09/14 00:28:01;;;;;;;11.57;9.38;;;15.90;99.90;;;;;;4995020;28;25091;-73
2021/09/14 00:30:26;;;;;;;13.98;8.88;;;15.90;99.90;;;;;;5002788;28;25099;-73
2021/09/14 00:32:52;;;;;;;14.32;9.82;;;15.90;99.90;;;;;;4991192;28;25130;-72
2021/09/14 00:35:18;;;;;;;16.80;11.00;;;15.90;99.90;;;;;;4994396;28;25065;-73
2021/09/14 00:37:43;;;;;;;15.55;9.35;;;15.70;99.90;;;;;;4996356;28;25079;-73
2021/09/14 00:40:10;;;;;;;15.57;10.27;;;15.70;99.90;;;;;;4989776;28;25068;-72
2021/09/14 00:42:35;;;;;;;12.50;9.52;;;15.80;99.90;;;;;;4994772;28;25054;-73
2021/09/14 00:45:03;;;;;;;14.43;9.02;;;15.80;99.90;;;;;;4980458;28;25075;-73
2021/09/14 00:47:29;;;;;;;12.48;8.70;;;15.80;99.90;;;;;;4992655;28;25164;-73
2021/09/14 00:49:54;;;;;;;19.13;10.18;;;15.80;99.90;;;;;;4982823;28;25121;-72
2021/09/14 00:52:20;;;;;;;15.02;9.88;;;15.70;99.90;;;;;;4990446;28;25082;-73
2021/09/14 00:54:45;;;;;;;10.80;8.55;;;15.70;99.90;;;;;;4991250;28;25131;-72
2021/09/14 00:57:11;;;;;;;16.73;9.77;;;15.80;99.90;;;;;;4991327;28;25130;-72
2021/09/14 00:59:37;;;;;;;13.00;9.23;;;15.80;99.90;;;;;;5004288;28;25122;-73
2021/09/14 01:02:03;;;;;;;12.90;9.80;;;15.80;99.90;;;;;;4996694;28;25077;-72
2021/09/14 01:04:30;;;;;;;16.45;10.73;;;15.80;99.90;;;;;;4990671;28;25054;-73
2021/09/14 01:06:56;;;;;;;13.68;8.90;;;15.80;99.90;;;;;;4982134;28;25083;-71
2021/09/14 01:09:23;;;;;;;13.77;11.13;;;15.80;99.90;;;;;;4994391;28;25092;-76
2021/09/14 01:11:51;;;;;;;15.73;10.55;;;15.80;99.90;;;;;;4984030;28;25058;-72
2021/09/14 01:14:16;;;;;;;14.02;9.30;;;15.80;99.90;;;;;;5004989;28;25062;-72
2021/09/14 01:16:42;;;;;;;15.07;10.32;;;15.90;99.90;;;;;;4995412;28;25083;-72
2021/09/14 01:19:10;;;;;;;15.80;9.10;;;15.90;99.90;;;;;;4994558;28;25069;-73
2021/09/14 01:21:37;;;;;;;13.05;9.40;;;15.90;99.90;;;;;;4993923;28;25072;-71
2021/09/14 01:24:03;;;;;;;17.63;10.13;;;15.90;99.90;;;;;;4986944;28;25160;-72
2021/09/14 01:26:31;;;;;;;12.57;9.73;;;15.90;99.90;;;;;;5000459;28;25102;-73
2021/09/14 01:28:56;;;;;;;13.60;10.43;;;15.80;99.90;;;;;;5007348;28;25051;-72
2021/09/14 01:31:22;;;;;;;17.95;10.68;;;15.70;99.90;;;;;;4988977;28;25072;-72
2021/09/14 01:33:51;;;;;;;13.25;10.77;;;15.60;99.90;;;;;;4990024;28;25054;-73
2021/09/14 01:36:18;;;;;;;17.27;10.80;;;15.50;99.90;;;;;;4988769;28;25076;-73
2021/09/14 01:38:44;;;;;;;17.90;11.85;;;15.40;99.90;;;;;;4993615;28;25073;-71
2021/09/14 01:41:11;;;;;;;17.25;10.52;;;15.40;99.90;;;;;;4990733;28;25088;-72
2021/09/14 01:43:37;;;;;;;16.38;10.85;;;15.40;99.90;;;;;;4989626;28;25143;-72
2021/09/14 01:46:04;;;;;;;21.77;11.27;;;15.30;99.90;;;;;;4990941;28;25161;-72
2021/09/14 01:48:30;;;;;;;14.77;10.40;;;15.40;99.90;;;;;;4988827;28;25050;-72
2021/09/14 01:50:57;;;;;;;16.63;10.95;;;15.50;99.90;;;;;;4984088;28;25077;-72
2021/09/14 01:53:24;;;;;;;14.25;11.38;;;15.50;99.90;;;;;;4984585;28;25111;-71
2021/09/14 01:55:50;;;;;;;16.63;10.95;;;15.40;99.90;;;;;;4983390;28;25094;-72
2021/09/14 01:58:17;;;;;;;18.05;10.48;;;15.40;99.90;;;;;;4993384;28;25066;-72
2021/09/14 02:00:56;;;;;;;18.30;11.10;;;15.40;99.90;;;;;;5001504;28;25074;-71
2021/09/14 02:03:28;;;;;;;18.00;11.23;;;15.40;99.90;;;;;;4994337;28;25107;-72
2021/09/14 02:06:22;;;;;;;16.10;10.88;;;15.50;99.90;;;;;;4988738;28;25054;-72
2021/09/14 02:39:01;;;;;;;16.80;11.50;;;15.10;99.90;;;;;;4995943;28;25051;-73
2021/09/14 02:44:01;;;;;;;14.25;11.07;;;15.30;99.90;;;;;;4990012;28;25105;-72
2021/09/14 03:00:08;;;;;;;20.17;13.75;;;15.30;99.90;;;;;;4999793;28;25140;-72
2021/09/14 03:02:34;;;;;;;20.48;13.20;;;15.20;99.90;;;;;;4987863;28;25070;-72
2021/09/14 03:05:00;;;;;;;23.15;13.68;;;15.10;99.90;;;;;;4988338;28;25148;-73
2021/09/14 03:07:26;;;;;;;22.75;13.90;;;15.10;99.90;;;;;;5000430;28;25167;-72
2021/09/14 03:09:51;;;;;;;22.48;13.05;;;15.10;99.90;;;;;;4988803;28;25053;-72
2021/09/14 03:12:17;;;;;;;19.38;13.88;;;15.10;99.90;;;;;;4990203;28;25067;-72
2021/09/14 03:14:44;;;;;;;19.83;14.65;;;15.00;99.90;;;;;;4990356;28;25095;-71
2021/09/14 03:17:10;;;;;;;21.95;14.02;;;15.00;99.90;;;;;;4988253;28;25059;-71
2021/09/14 03:19:35;;;;;;;21.05;14.00;;;15.00;99.90;;;;;;4987372;28;25068;-72
2021/09/14 03:22:01;;;;;;;18.38;15.02;;;15.00;99.90;;;;;;4983274;28;25063;-72
2021/09/14 03:24:26;;;;;;;16.70;12.95;;;15.00;99.90;;;;;;4999758;28;25095;-71
2021/09/14 03:26:52;;;;;;;20.58;14.45;;;15.00;99.90;;;;;;4985279;28;25072;-72
2021/09/14 03:29:19;;;;;;;20.02;14.85;;;15.10;99.90;;;;;;5002027;28;25079;-72
2021/09/14 03:31:44;;;;;;;20.25;14.18;;;15.20;99.90;;;;;;4985565;28;25080;-72
2021/09/14 03:34:10;;;;;;;25.73;16.17;;;15.10;99.90;;;;;;4988896;28;25070;-72
2021/09/14 03:36:35;;;;;;;24.83;15.02;;;15.10;99.90;;;;;;4987165;28;25131;-72
2021/09/14 03:39:02;;;;;;;21.30;14.52;;;15.00;99.90;;;;;;4981034;28;25154;-72
2021/09/14 03:41:28;;;;;;;18.33;13.27;;;15.00;99.90;;;;;;4984433;28;25172;-74
2021/09/14 03:43:53;;;;;;;19.13;14.05;;;15.10;99.90;;;;;;4997287;28;25109;-72
2021/09/14 03:46:19;;;;;;;21.98;15.38;;;15.10;99.90;;;;;;4990665;28;25145;-72
2021/09/14 03:48:44;;;;;;;19.63;15.98;;;15.00;99.90;;;;;;4988997;28;25143;-72
2021/09/14 03:51:10;;;;;;;20.38;14.95;;;14.90;99.90;;;;;;4988155;28;25060;-72
2021/09/14 03:53:35;;;;;;;16.58;13.43;;;15.00;99.90;;;;;;4991941;28;25131;-72
2021/09/14 03:56:01;;;;;;;21.27;15.32;;;15.10;99.90;;;;;;4986698;28;25035;-73
2021/09/14 03:58:27;;;;;;;19.92;15.82;;;15.00;99.90;;;;;;4987459;28;25057;-73
2021/09/14 04:00:53;;;;;;;22.25;15.32;;;14.90;99.90;;;;;;4988065;28;25067;-72
2021/09/14 04:03:39;;;;;;;20.38;14.25;;;14.90;99.90;;;;;;4981447;28;25133;-72
2021/09/14 04:08:52;;;;;;;20.70;15.02;;;14.90;99.90;;;;;;4975748;28;25059;-72
2021/09/14 04:11:18;;;;;;;19.83;14.05;;;14.90;99.90;;;;;;4977973;28;25079;-72
2021/09/14 04:13:44;;;;;;;22.95;15.48;;;14.90;99.90;;;;;;4998500;28;25060;-72
2021/09/14 04:16:10;;;;;;;25.30;15.25;;;14.90;99.90;;;;;;4990816;28;25151;-73
2021/09/14 04:18:36;;;;;;;24.08;15.15;;;15.00;99.90;;;;;;4979660;28;25063;-72
2021/09/14 04:21:02;;;;;;;24.35;16.00;;;15.00;99.90;;;;;;4990911;28;25063;-74
2021/09/14 04:23:27;;;;;;;21.77;14.10;;;15.00;99.90;;;;;;4988198;28;25085;-73
2021/09/14 04:25:54;;;;;;;22.88;14.25;;;15.00;99.90;;;;;;4987450;28;25151;-72
2021/09/14 04:28:20;;;;;;;25.38;16.38;;;14.80;99.90;;;;;;4982769;28;25136;-72
2021/09/14 04:30:46;;;;;;;22.27;17.08;;;14.90;99.90;;;;;;4982722;28;25064;-74
2021/09/14 04:33:13;;;;;;;20.23;15.52;;;14.90;99.90;;;;;;4996465;28;25062;-73
2021/09/14 04:35:38;;;;;;;23.92;17.05;;;14.90;99.90;;;;;;4981640;28;25097;-74
2021/09/14 04:38:04;;;;;;;28.08;17.33;;;14.70;99.90;;;;;;4985371;28;25112;-73
2021/09/14 04:40:31;;;;;;;19.30;15.45;;;14.80;99.90;;;;;;4983698;28;25061;-73
2021/09/14 04:42:56;;;;;;;26.02;17.20;;;14.80;99.90;;;;;;4997515;28;25060;-73
2021/09/14 04:45:22;;;;;;;24.80;17.73;;;14.70;99.90;;;;;;4976144;28;25128;-72
2021/09/14 04:47:48;;;;;;;24.15;16.77;;;14.70;99.90;;;;;;4981796;28;25086;-72
2021/09/14 04:50:13;;;;;;;21.15;16.33;;;14.60;99.90;;;;;;4977258;28;25086;-73
2021/09/14 04:52:39;;;;;;;24.02;15.40;;;14.70;99.90;;;;;;4972394;28;25069;-73
2021/09/14 04:55:05;;;;;;;21.48;16.40;;;14.90;99.90;;;;;;4977243;28;25063;-73
2021/09/14 04:57:31;;;;;;;23.35;16.40;;;14.80;99.90;;;;;;4983836;28;25100;-73
2021/09/14 04:59:57;;;;;;;20.27;14.65;;;14.80;99.90;;;;;;4992072;28;25076;-73
2021/09/14 05:02:22;;;;;;;22.27;16.77;;;14.80;99.90;;;;;;4987411;28;25147;-73
2021/09/14 05:04:48;;;;;;;21.52;16.30;;;14.90;99.90;;;;;;4982998;28;25058;-73
2021/09/14 05:07:14;;;;;;;20.52;15.82;;;14.90;99.90;;;;;;4980091;28;25092;-72
2021/09/14 05:09:39;;;;;;;23.45;17.13;;;14.90;99.90;;;;;;4989855;28;25075;-73
2021/09/14 05:12:05;;;;;;;24.77;17.75;;;14.90;99.90;;;;;;4994618;28;25057;-73
2021/09/14 05:14:31;;;;;;;24.90;17.30;;;14.90;99.90;;;;;;4987354;28;25122;-73
2021/09/14 05:16:56;;;;;;;19.45;15.90;;;14.90;99.90;;;;;;4976895;28;25056;-74
2021/09/14 05:19:33;;;;;;;25.95;17.52;;;15.00;99.90;;;;;;4983334;28;25139;-74
2021/09/14 05:21:59;;;;;;;21.65;15.70;;;14.90;99.90;;;;;;4982289;28;25076;-72
2021/09/14 05:24:26;;;;;;;21.80;16.00;;;14.90;99.90;;;;;;4980470;28;25080;-72
2021/09/14 05:26:52;;;;;;;23.65;16.55;;;15.00;99.90;;;;;;4990578;28;25067;-74
2021/09/14 05:29:18;;;;;;;25.65;17.83;;;15.00;99.90;;;;;;4996041;28;25155;-73
2021/09/14 05:31:43;;;;;;;25.13;18.25;;;15.00;99.90;;;;;;4997761;28;25075;-76
2021/09/14 05:34:09;;;;;;;27.38;19.05;;;15.00;99.90;;;;;;4994783;28;25162;-73
2021/09/14 05:36:36;;;;;;;22.10;17.63;;;14.90;99.90;;;;;;4982820;28;25065;-72
2021/09/14 05:39:02;;;;;;;30.13;20.65;;;14.80;99.90;;;;;;4996982;28;25070;-74
2021/09/14 05:41:27;;;;;;;26.23;20.30;;;14.80;99.90;;;;;;4984322;28;25062;-75
2021/09/14 05:43:53;;;;;;;29.92;21.05;;;14.80;99.90;;;;;;4993193;28;25058;-73
2021/09/14 05:46:18;;;;;;;25.48;19.38;;;14.80;99.90;;;;;;5008517;28;25073;-73
2021/09/14 05:48:44;;;;;;;29.77;19.20;;;14.80;99.90;;;;;;4993816;28;25160;-73
2021/09/14 05:51:10;;;;;;;31.00;21.00;;;15.00;99.90;;;;;;4988903;28;25083;-73
2021/09/14 05:53:36;;;;;;;31.10;19.80;;;14.90;99.90;;;;;;4995012;28;25050;-76
2021/09/14 05:56:02;;;;;;;30.13;19.60;;;14.90;99.90;;;;;;5011480;28;25054;-72
2021/09/14 05:58:30;;;;;;;28.15;20.08;;;15.00;99.90;;;;;;4991142;28;25144;-73
2021/09/14 06:00:57;;;;;;;27.02;19.17;;;15.00;99.90;;;;;;4985930;28;25118;-74
2021/09/14 06:03:23;;;;;;;30.17;20.58;;;14.90;99.90;;;;;;4986514;28;25110;-74
2021/09/14 06:05:48;;;;;;;24.63;18.95;;;14.90;99.90;;;;;;4981015;28;25096;-75
2021/09/14 06:08:14;;;;;;;27.25;19.70;;;14.90;99.90;;;;;;4999975;28;25073;-72
2021/09/14 06:10:40;;;;;;;29.75;21.08;;;14.80;99.90;;;;;;4989941;28;25071;-75
2021/09/14 06:13:05;;;;;;;29.98;21.30;;;14.90;99.90;;;;;;4989136;28;25079;-74
2021/09/14 06:15:31;;;;;;;28.15;21.45;;;14.90;99.90;;;;;;4984307;28;25070;-73
2021/09/14 06:17:57;;;;;;;27.35;20.90;;;14.90;99.90;;;;;;5000898;28;25062;-72
2021/09/14 06:20:22;;;;;;;26.83;21.02;;;14.80;99.90;;;;;;5006937;28;25082;-73
2021/09/14 06:22:48;;;;;;;29.17;20.38;;;14.80;99.90;;;;;;4999089;28;25134;-73
2021/09/14 06:25:13;;;;;;;35.03;23.27;;;14.90;99.90;;;;;;4987207;28;25062;-74
2021/09/14 06:27:40;;;;;;;30.23;21.55;;;14.90;99.90;;;;;;4990466;28;25077;-74
2021/09/14 06:30:06;;;;;;;33.75;23.00;;;15.00;99.90;;;;;;4990987;28;25101;-75
2021/09/14 06:32:32;;;;;;;30.45;21.10;;;15.00;99.90;;;;;;4991248;28;25095;-74
2021/09/14 06:34:58;;;;;;;30.35;23.10;;;15.10;99.90;;;;;;4984786;28;25096;-74
2021/09/14 06:37:24;;;;;;;33.05;23.02;;;15.00;99.90;;;;;;4991631;28;25062;-75
2021/09/14 06:39:49;;;;;;;37.00;23.88;;;15.00;99.90;;;;;;4982776;28;25065;-75
2021/09/14 06:42:15;;;;;;;31.75;24.15;;;15.10;99.90;;;;;;4999718;28;25081;-74
2021/09/14 06:44:40;;;;;;;33.92;24.05;;;15.10;99.90;;;;;;5002966;28;25097;-74
2021/09/14 06:47:06;;;;;;;32.42;25.20;;;15.20;99.90;;;;;;4989663;28;25077;-74
2021/09/14 06:49:32;;;;;;;31.77;23.35;;;15.30;99.90;;;;;;5000560;28;25052;-73
2021/09/14 06:51:57;;;;;;;29.63;23.40;;;15.30;99.90;;;;;;5000035;28;25077;-74
2021/09/14 06:54:23;;;;;;;35.33;24.67;;;15.30;99.90;;;;;;4988842;28;25105;-73
2021/09/14 06:56:49;;;;;;;36.92;24.60;;;15.40;99.90;;;;;;4986520;28;25063;-74
2021/09/14 06:59:14;;;;;;;34.38;24.73;;;15.50;99.90;;;;;;4988201;28;25085;-74
2021/09/14 07:01:40;;;;;;;35.08;23.60;;;15.60;99.90;;;;;;4990639;28;25047;-76
2021/09/14 07:04:06;;;;;;;29.58;23.33;;;15.50;99.90;;;;;;4987362;28;25096;-73
2021/09/14 07:06:31;;;;;;;33.78;25.13;;;15.50;99.90;;;;;;4979439;28;25132;-74
2021/09/14 07:08:57;;;;;;;35.05;24.10;;;15.50;99.90;;;;;;4975297;28;25076;-73
2021/09/14 07:11:22;;;;;;;32.72;23.58;;;15.50;99.90;;;;;;4977459;28;25080;-75
2021/09/14 07:13:48;;;;;;;34.50;24.10;;;15.60;99.90;;;;;;4989949;28;25069;-74
2021/09/14 07:16:14;;;;;;;33.80;25.10;;;15.70;99.90;;;;;;4975605;28;25088;-75
2021/09/14 07:18:41;;;;;;;31.63;24.00;;;15.80;99.90;;;;;;4990994;28;25096;-74
2021/09/14 07:21:07;;;;;;;35.38;25.02;;;15.80;99.90;;;;;;4976190;28;25053;-73
2021/09/14 07:23:32;;;;;;;29.23;23.63;;;15.90;99.90;;;;;;4981973;28;25114;-75
2021/09/14 07:25:58;;;;;;;30.33;24.33;;;16.00;99.90;;;;;;4982394;28;25048;-74
2021/09/14 07:28:24;;;;;;;35.25;23.27;;;16.00;99.90;;;;;;4999055;28;25053;-74
2021/09/14 07:30:50;;;;;;;31.25;23.60;;;16.10;99.90;;;;;;4982247;28;25074;-74
2021/09/14 07:33:16;;;;;;;34.35;23.80;;;16.20;99.90;;;;;;4988918;28;25067;-74
2021/09/14 07:35:42;;;;;;;35.33;24.38;;;16.30;99.90;;;;;;4989640;28;25065;-74
2021/09/14 07:38:10;;;;;;;38.22;24.95;;;16.20;99.90;;;;;;4989064;28;25135;-75
2021/09/14 07:40:36;;;;;;;31.17;25.13;;;16.10;99.90;;;;;;4989850;28;25130;-74
2021/09/14 07:43:01;;;;;;;28.55;23.10;;;16.20;99.90;;;;;;4999289;28;25079;-74
2021/09/14 07:45:27;;;;;;;30.40;23.35;;;16.20;99.90;;;;;;4989586;28;25088;-73
2021/09/14 07:47:53;;;;;;;29.75;23.90;;;16.30;99.90;;;;;;4987784;28;25083;-75
2021/09/14 07:50:18;;;;;;;27.55;22.80;;;16.40;99.90;;;;;;4989768;28;25170;-75
2021/09/14 07:52:45;;;;;;;28.42;23.20;;;16.60;99.90;;;;;;4985728;28;25063;-74
2021/09/14 07:55:11;;;;;;;33.97;24.80;;;16.90;99.90;;;;;;4990335;28;25070;-74
2021/09/14 07:57:36;;;;;;;28.00;22.30;;;16.90;99.90;;;;;;4990709;28;25075;-74
2021/09/14 08:00:03;;;;;;;31.52;22.55;;;16.90;99.90;;;;;;4988915;28;25125;-74
2021/09/14 08:02:28;;;;;;;29.83;22.63;;;16.90;99.90;;;;;;4989606;28;25072;-75
2021/09/14 08:04:54;;;;;;;29.58;22.77;;;17.00;99.90;;;;;;4988717;28;25120;-75
2021/09/14 08:07:20;;;;;;;29.42;22.55;;;17.10;99.90;;;;;;4988370;28;25058;-74
2021/09/14 08:09:45;;;;;;;26.40;22.60;;;17.20;99.90;;;;;;4976907;28;25138;-74
2021/09/14 08:12:11;;;;;;;29.70;22.63;;;17.30;99.90;;;;;;4976836;28;25133;-74
2021/09/14 08:14:36;;;;;;;30.73;23.85;;;17.30;99.90;;;;;;4973901;28;25089;-75
2021/09/14 08:17:03;;;;;;;29.75;23.77;;;17.30;99.90;;;;;;4989768;28;25057;-77
2021/09/14 08:19:29;;;;;;;28.63;23.77;;;17.40;99.90;;;;;;4989208;28;25102;-74
2021/09/14 08:21:54;;;;;;;28.98;21.65;;;17.50;99.90;;;;;;4990447;28;25061;-75
2021/09/14 08:24:21;;;;;;;25.13;22.42;;;17.60;99.90;;;;;;4990009;28;25055;-76
2021/09/14 08:26:47;;;;;;;29.70;20.90;;;17.70;99.90;;;;;;4996058;28;25054;-74
2021/09/14 08:29:13;;;;;;;26.85;21.85;;;17.90;99.90;;;;;;5001719;28;25071;-74
2021/09/14 08:31:40;;;;;;;27.10;21.80;;;17.80;99.90;;;;;;4998538;28;25079;-76
2021/09/14 08:34:05;;;;;;;24.10;20.63;;;17.90;99.90;;;;;;5001938;28;25111;-74
2021/09/14 08:36:32;;;;;;;28.48;20.95;;;18.10;99.90;;;;;;5000792;28;25093;-74
2021/09/14 08:38:57;;;;;;;23.88;20.42;;;18.40;99.90;;;;;;5009196;28;25103;-73
2021/09/14 08:41:23;;;;;;;23.77;19.67;;;18.80;99.90;;;;;;5016065;28;25099;-73
2021/09/14 08:43:50;;;;;;;24.58;20.20;;;19.30;99.90;;;;;;5014664;28;25085;-74
2021/09/14 08:46:18;;;;;;;21.92;18.48;;;19.40;99.90;;;;;;4989585;28;25076;-74
2021/09/14 08:48:47;;;;;;;24.10;18.98;;;19.80;99.90;;;;;;4992969;28;25076;-74
2021/09/14 08:51:13;;;;;;;26.02;21.70;;;20.10;99.90;;;;;;5008560;28;25057;-74
2021/09/14 08:53:39;;;;;;;23.80;21.00;;;20.30;99.90;;;;;;4993147;28;25104;-73
2021/09/14 08:56:07;;;;;;;24.85;20.55;;;19.80;99.90;;;;;;4992635;28;25049;-73
2021/09/14 08:58:33;;;;;;;24.85;19.92;;;19.50;99.90;;;;;;4990050;28;25097;-76
2021/09/14 09:00:58;;;;;;;22.65;19.27;;;19.30;99.90;;;;;;4993404;28;25093;-75
2021/09/14 09:03:29;;;;;;;24.58;20.55;;;19.50;99.90;;;;;;4993403;28;25144;-74
2021/09/14 09:05:57;;;;;;;27.45;19.70;;;19.50;99.90;;;;;;4992711;28;25053;-75
2021/09/14 09:08:28;;;;;;;24.67;19.15;;;19.70;99.90;;;;;;4994370;28;25063;-75
2021/09/14 09:11:09;;;;;;;21.40;19.17;;;20.20;99.90;;;;;;4993295;28;25050;-75
2021/09/14 09:13:48;;;;;;;23.17;19.90;;;20.10;99.90;;;;;;4985121;28;25080;-74
2021/09/14 09:16:25;;;;;;;25.55;19.95;;;20.10;99.90;;;;;;4991576;28;25067;-72
2021/09/14 09:19:00;;;;;;;29.08;20.90;;;19.60;99.90;;;;;;4991872;28;25062;-75
2021/09/14 09:21:31;;;;;;;27.13;21.15;;;19.30;99.90;;;;;;4993064;28;25051;-75
2021/09/14 09:23:58;;;;;;;30.77;20.67;;;19.50;99.90;;;;;;4992557;28;25134;-74
2021/09/14 09:26:36;;;;;;;29.83;20.08;;;19.50;99.90;;;;;;4991987;28;25058;-75
2021/09/14 09:29:05;;;;;;;27.67;20.50;;;19.40;99.90;;;;;;5006837;28;25051;-77
2021/09/14 09:31:35;;;;;;;28.92;19.92;;;19.60;99.90;;;;;;4992324;28;25072;-76
2021/09/14 09:34:05;;;;;;;25.50;19.73;;;19.90;99.90;;;;;;4992935;28;25066;-74
2021/09/14 09:36:34;;;;;;;27.48;21.08;;;19.80;99.90;;;;;;4992787;28;25068;-75
2021/09/14 09:39:03;;;;;;;22.50;19.65;;;19.70;99.90;;;;;;4993538;28;25049;-75
2021/09/14 09:41:33;;;;;;;26.88;21.77;;;19.60;99.90;;;;;;4990783;28;25063;-76
2021/09/14 09:44:07;;;;;;;26.65;22.48;;;19.70;99.90;;;;;;5001059;28;25094;-76
2021/09/14 09:46:37;;;;;;;26.08;20.40;;;19.50;99.90;;;;;;4992351;28;25073;-75
2021/09/14 09:49:09;;;;;;;28.15;22.40;;;19.60;99.90;;;;;;4995513;28;25136;-75
2021/09/14 09:51:36;;;;;;;26.27;21.33;;;19.70;99.90;;;;;;4992963;28;25137;-75
2021/09/14 09:54:02;;;;;;;22.17;19.77;;;19.80;99.90;;;;;;4995842;28;25096;-75
2021/09/14 09:56:32;;;;;;;23.90;18.45;;;19.80;99.90;;;;;;4992630;28;25141;-75
2021/09/14 09:59:02;;;;;;;28.50;18.75;;;20.00;99.90;;;;;;4994243;28;25120;-77
2021/09/14 10:01:28;;;;;;;25.40;20.23;;;20.30;99.90;;;;;;4985472;28;25063;-75
2021/09/14 10:04:09;;;;;;;21.45;18.30;;;20.40;99.90;;;;;;4990345;28;25093;-77
2021/09/14 10:06:56;;;;;;;23.15;19.25;;;20.50;99.90;;;;;;5001006;28;25045;-74
2021/09/14 10:09:32;;;;;;;24.52;18.95;;;20.70;99.90;;;;;;5000478;28;25062;-76
2021/09/14 10:11:57;;;;;;;25.02;20.77;;;20.70;99.90;;;;;;5007082;28;25122;-76
2021/09/14 10:14:24;;;;;;;23.13;20.23;;;20.60;99.90;;;;;;4978950;28;25065;-75
2021/09/14 10:16:50;;;;;;;21.88;19.55;;;20.50;99.90;;;;;;4996115;28;25065;-78
2021/09/14 10:19:29;;;;;;;25.65;20.35;;;20.50;99.90;;;;;;4983786;28;25072;-77
2021/09/14 10:22:08;;;;;;;23.50;18.83;;;20.60;99.90;;;;;;4996184;28;25063;-76
2021/09/14 10:24:35;;;;;;;20.80;17.80;;;20.80;99.90;;;;;;4991959;28;25078;-76
2021/09/14 10:27:21;;;;;;;21.35;18.67;;;21.00;99.90;;;;;;4993592;28;25076;-77
2021/09/14 10:29:57;;;;;;;22.83;20.42;;;21.20;99.90;;;;;;4989357;28;25101;-76
2021/09/14 10:32:22;;;;;;;22.20;19.35;;;21.10;99.90;;;;;;5003134;28;25109;-74
2021/09/14 10:34:52;;;;;;;25.35;20.50;;;21.30;99.90;;;;;;4992603;28;25098;-76
2021/09/14 10:37:19;;;;;;;25.52;18.55;;;21.10;99.90;;;;;;4990794;28;25087;-77
2021/09/14 10:39:45;;;;;;;21.58;19.27;;;21.30;99.90;;;;;;4990663;28;25099;-76
2021/09/14 10:42:17;;;;;;;22.00;19.42;;;21.40;99.90;;;;;;4995618;28;25087;-73
2021/09/14 10:44:44;;;;;;;23.27;20.42;;;21.50;99.90;;;;;;4992400;28;25056;-75
2021/09/14 10:47:13;;;;;;;23.55;19.80;;;21.50;99.90;;;;;;4995307;28;25084;-74
2021/09/14 10:49:49;;;;;;;22.42;18.40;;;21.40;99.90;;;;;;4998320;28;25081;-75
2021/09/14 10:52:28;;;;;;;21.88;17.85;;;21.50;99.90;;;;;;4988419;28;25077;-73
2021/09/14 10:54:54;;;;;;;21.25;18.05;;;21.70;99.90;;;;;;5009667;28;25099;-75
2021/09/14 10:57:30;;;;;;;22.75;18.33;;;21.70;99.90;;;;;;4997424;28;25087;-74
2021/09/14 10:59:56;;;;;;;22.25;17.77;;;21.90;99.90;;;;;;4998809;28;25148;-74
2021/09/14 11:02:25;;;;;;;21.15;18.92;;;21.90;99.90;;;;;;4990748;28;25055;-75
2021/09/14 11:04:51;;;;;;;20.48;17.80;;;21.70;99.90;;;;;;4991793;28;25065;-73
2021/09/14 11:07:20;;;;;;;19.80;17.00;;;21.60;99.90;;;;;;4987883;28;25070;-75
2021/09/14 11:09:57;;;;;;;20.23;16.60;;;21.70;99.90;;;;;;4993136;28;25073;-75
2021/09/14 11:12:25;;;;;;;19.25;17.17;;;22.10;99.90;;;;;;4992909;28;25155;-76
2021/09/14 11:14:55;;;;;;;21.88;16.02;;;22.40;99.90;;;;;;4995183;28;25087;-75
2021/09/14 11:17:32;;;;;;;19.20;16.17;;;22.60;99.90;;;;;;5001837;28;25058;-75
2021/09/14 11:20:07;;;;;;;17.88;15.98;;;22.90;99.90;;;;;;4981031;28;25101;-74
2021/09/14 11:22:37;;;;;;;19.35;16.08;;;23.20;99.90;;;;;;4985261;28;25140;-75
2021/09/14 11:25:04;;;;;;;19.65;15.45;;;23.10;99.90;;;;;;4998025;28;25180;-71
2021/09/14 11:27:31;;;;;;;18.65;16.10;;;23.20;99.90;;;;;;4983468;28;25154;-76
2021/09/14 11:29:57;;;;;;;23.17;16.02;;;23.20;99.90;;;;;;4989649;28;25054;-74
2021/09/14 11:32:26;;;;;;;22.38;16.17;;;23.20;99.90;;;;;;4986067;28;25067;-75
2021/09/14 11:34:52;;;;;;;18.20;15.20;;;23.30;99.90;;;;;;4990278;28;25055;-75
2021/09/14 11:37:31;;;;;;;18.88;14.68;;;23.60;99.90;;;;;;4978704;28;25081;-75
2021/09/14 11:39:58;;;;;;;15.80;14.00;;;23.70;99.90;;;;;;4979177;28;25134;-73
2021/09/14 11:42:24;;;;;;;23.75;14.88;;;24.00;99.90;;;;;;4988789;28;25080;-74
2021/09/14 11:45:00;;;;;;;15.68;13.98;;;23.90;99.90;;;;;;4989796;28;25056;-74
2021/09/14 11:47:26;;;;;;;17.55;14.80;;;24.10;99.90;;;;;;4986487;28;25064;-75
2021/09/14 11:49:52;;;;;;;18.08;15.02;;;24.10;99.90;;;;;;4985439;28;25083;-74
2021/09/14 11:52:18;;;;;;;18.38;12.57;;;24.30;99.90;;;;;;4989016;28;25072;-75
2021/09/14 11:54:44;;;;;;;15.75;12.75;;;24.60;99.90;;;;;;4989048;28;25078;-73
2021/09/14 11:57:16;;;;;;;16.70;13.30;;;24.60;99.90;;;;;;4987692;28;25067;-74
2021/09/14 11:59:42;;;;;;;;;;;24.40;99.90;;;;;;4985637;28;25066;-73
2021/09/14 12:02:08;;;;;;;21.17;15.35;;;24.20;99.90;;;;;;4988470;28;24068;-72
2021/09/14 12:04:33;;;;;;;19.30;15.55;;;24.10;99.90;;;;;;4993315;28;25064;-73
2021/09/14 12:06:59;;;;;;;19.38;14.63;;;24.00;99.90;;;;;;4994223;28;25070;-73
2021/09/14 12:09:26;;;;;;;17.08;14.15;;;24.20;99.90;;;;;;4972537;28;25052;-73
2021/09/14 12:12:12;;;;;;;21.13;14.68;;;24.60;99.90;;;;;;4987000;28;25090;-72
2021/09/14 12:14:37;;;;;;;20.10;15.30;;;24.50;99.90;;;;;;4982391;28;25106;-74
2021/09/14 12:17:05;;;;;;;24.70;16.60;;;24.60;99.90;;;;;;4988026;28;25106;-75
2021/09/14 12:19:35;;;;;;;26.42;15.02;;;24.60;99.90;;;;;;4993884;28;25095;-73
2021/09/14 12:22:01;;;;;;;23.33;15.82;;;24.60;99.90;;;;;;5004031;28;25068;-74
2021/09/14 12:24:27;;;;;;;15.85;14.15;;;24.20;99.90;;;;;;4993540;28;25070;-72
2021/09/14 12:26:55;;;;;;;18.42;14.70;;;24.10;99.90;;;;;;5009168;28;25080;-73
2021/09/14 12:29:22;;;;;;;20.15;14.02;;;24.10;99.90;;;;;;4993883;28;25105;-73
2021/09/14 12:31:48;;;;;;;16.25;14.40;;;24.10;99.90;;;;;;4997681;28;25072;-75
2021/09/14 12:34:16;;;;;;;20.73;15.40;;;24.10;99.90;;;;;;4999752;28;25172;-74
2021/09/14 12:36:43;;;;;;;17.80;14.80;;;24.00;99.90;;;;;;5010284;28;25073;-74
2021/09/14 12:39:09;;;;;;;18.95;14.60;;;23.80;99.90;;;;;;4997243;28;25083;-74
2021/09/14 12:41:35;;;;;;;22.63;15.35;;;23.80;99.90;;;;;;5000790;28;25061;-72
2021/09/14 12:44:01;;;;;;;21.02;15.48;;;24.00;99.90;;;;;;5010614;28;25174;-73
2021/09/14 12:46:26;;;;;;;16.20;14.07;;;23.80;99.90;;;;;;4992496;28;25127;-73
2021/09/14 12:48:52;;;;;;;22.98;15.80;;;23.80;99.90;;;;;;5001341;28;25132;-73
2021/09/14 12:51:18;;;;;;;20.42;14.82;;;23.80;99.90;;;;;;4993899;28;25063;-73
2021/09/14 12:53:43;;;;;;;21.08;14.25;;;23.80;99.90;;;;;;4998811;28;25045;-74
2021/09/14 12:56:09;;;;;;;19.50;16.88;;;23.70;99.90;;;;;;5001338;28;25108;-72
2021/09/14 12:58:38;;;;;;;25.33;17.83;;;23.70;99.90;;;;;;4997893;28;25058;-73
2021/09/14 13:01:04;;;;;;;18.77;16.30;;;23.60;99.90;;;;;;4989640;28;25103;-74
2021/09/14 13:03:29;;;;;;;16.73;14.35;;;23.50;99.90;;;;;;4991639;28;25084;-74
2021/09/14 13:05:55;;;;;;;20.23;14.73;;;23.50;99.90;;;;;;4995878;28;25064;-74
2021/09/14 13:08:20;;;;;;;22.05;15.95;;;23.60;99.90;;;;;;4997041;28;25089;-74
2021/09/14 13:10:47;;;;;;;18.05;14.60;;;23.60;99.90;;;;;;4996186;28;25073;-75
2021/09/14 13:16:15;;;;;;;23.25;16.77;;;23.70;99.90;;;;;;4995102;28;25067;-74
2021/09/14 13:18:49;;;;;;;24.20;16.00;;;23.60;99.90;;;;;;4994311;28;25149;-73
2021/09/14 13:21:16;;;;;;;20.42;14.10;;;23.70;99.90;;;;;;4992523;28;25075;-72